createdAt,value
2023-01-03T00:01:32.381Z,63.60
2023-01-03T00:03:05.927Z,64.50
2023-01-03T00:04:42.237Z,63.60
2023-01-03T00:06:20.821Z,64.50
2023-01-03T00:07:54.452Z,63.80
2023-01-03T00:09:27.625Z,63.90
2023-01-03T00:10:59.821Z,63.60
2023-01-03T00:12:33.006Z,63.60
2023-01-03T00:14:05.173Z,63.70
2023-01-03T00:15:39.636Z,63.70
2023-01-03T00:17:14.880Z,63.90
2023-01-03T00:18:47.215Z,63.90
2023-01-03T00:20:20.693Z,63.90
2023-01-03T00:21:54.471Z,64.00
2023-01-03T00:23:27.590Z,64.20
2023-01-03T00:24:59.963Z,64.10
2023-01-03T00:26:33.623Z,64.40
2023-01-03T00:28:07.056Z,64.50
2023-01-03T00:29:39.301Z,64.40
2023-01-03T00:31:13.905Z,64.40
2023-01-03T00:32:48.589Z,64.30
2023-01-03T00:34:22.214Z,64.20
2023-01-03T00:35:54.431Z,64.30
2023-01-03T00:37:27.639Z,64.10
2023-01-03T00:39:00.969Z,64.20
2023-01-03T00:40:34.148Z,64.30
2023-01-03T00:42:08.311Z,64.20
2023-01-03T00:43:42.612Z,64.20
2023-01-03T00:45:19.766Z,64.40
2023-01-03T00:46:53.773Z,64.30
2023-01-03T00:48:28.463Z,64.30
2023-01-03T00:50:02.007Z,64.30
2023-01-03T00:51:39.100Z,64.30
2023-01-03T00:53:11.274Z,64.40
2023-01-03T00:54:44.383Z,64.30
2023-01-03T00:56:21.614Z,64.20
2023-01-03T00:57:54.718Z,64.20
2023-01-03T00:59:27.922Z,63.90
2023-01-03T01:01:07.743Z,64.00
2023-01-03T01:02:41.194Z,65.00
2023-01-03T01:04:21.708Z,64.20
2023-01-03T01:05:54.009Z,64.30
2023-01-03T01:07:27.176Z,64.10
2023-01-03T01:09:03.118Z,63.90
2023-01-03T01:10:36.337Z,63.90
2023-01-03T01:12:09.808Z,63.70
2023-01-03T01:13:43.658Z,63.70
2023-01-03T01:15:17.420Z,63.80
2023-01-03T01:16:53.556Z,63.70
2023-01-03T01:18:26.673Z,63.70
2023-01-03T01:20:01.202Z,63.70
2023-01-03T01:21:34.459Z,63.80
2023-01-03T01:23:07.625Z,63.80
2023-01-03T01:24:41.650Z,63.90
2023-01-03T01:26:17.787Z,63.90
2023-01-03T01:27:50.053Z,63.90
2023-01-03T01:29:23.439Z,63.90
2023-01-03T01:30:59.598Z,64.00
2023-01-03T01:32:32.847Z,64.00
2023-01-03T01:34:06.125Z,64.00
2023-01-03T01:35:40.759Z,64.00
2023-01-03T01:37:13.936Z,64.00
2023-01-03T01:38:48.956Z,64.00
2023-01-03T01:40:22.276Z,64.10
2023-01-03T01:42:19.789Z,63.90
2023-01-03T01:44:16.430Z,63.90
2023-01-03T01:45:49.938Z,63.90
2023-01-03T01:47:34.607Z,63.70
2023-01-03T01:49:19.248Z,63.70
2023-01-03T01:50:57.841Z,63.80
2023-01-03T01:52:37.805Z,63.80
2023-01-03T01:54:11.917Z,63.70
2023-01-03T01:55:51.933Z,63.70
2023-01-03T01:57:27.064Z,63.60
2023-01-03T01:59:00.405Z,63.60
2023-01-03T02:00:34.543Z,63.60
2023-01-03T02:02:09.668Z,63.60
2023-01-03T02:03:47.515Z,63.70
2023-01-03T02:05:23.545Z,63.80
2023-01-03T02:06:59.797Z,63.70
2023-01-03T02:08:33.063Z,63.70
2023-01-03T02:10:08.136Z,63.60
2023-01-03T02:12:15.142Z,63.80
2023-01-03T02:13:59.890Z,63.60
2023-01-03T02:15:51.569Z,63.50
2023-01-03T02:17:38.781Z,63.10
2023-01-03T02:19:53.143Z,63.10
2023-01-03T02:22:11.249Z,63.10
2023-01-03T02:24:47.578Z,63.70
2023-01-03T02:26:52.727Z,62.80
2023-01-03T02:29:29.003Z,62.80
2023-01-03T02:31:12.101Z,62.70
2023-01-03T02:32:52.415Z,62.40
2023-01-03T02:34:36.413Z,62.40
2023-01-03T02:36:21.854Z,62.40
2023-01-03T02:38:03.005Z,62.40
2023-01-03T02:39:47.512Z,62.40
2023-01-03T02:41:34.374Z,62.40
2023-01-03T02:43:14.916Z,62.20
2023-01-03T02:44:59.080Z,62.40
2023-01-03T02:46:44.530Z,62.50
2023-01-03T02:48:29.423Z,62.60
2023-01-03T02:50:04.403Z,62.80
2023-01-03T02:51:40.226Z,62.70
2023-01-03T02:53:20.306Z,62.80
2023-01-03T02:55:00.780Z,62.60
2023-01-03T02:56:40.472Z,62.60
2023-01-03T02:58:20.227Z,62.80
2023-01-03T02:59:59.157Z,62.80
2023-01-03T03:01:36.894Z,62.80
2023-01-03T03:03:16.274Z,63.70
2023-01-03T03:04:55.543Z,62.90
2023-01-03T03:06:37.068Z,62.90
2023-01-03T03:08:10.220Z,62.90
2023-01-03T03:09:57.433Z,62.90
2023-01-03T03:11:53.580Z,62.90
2023-01-03T03:13:37.183Z,63.10
2023-01-03T03:15:16.733Z,63.20
2023-01-03T03:16:53.149Z,63.20
2023-01-03T03:18:41.189Z,63.20
2023-01-03T03:20:35.711Z,63.10
2023-01-03T03:22:36.951Z,63.10
2023-01-03T03:24:32.450Z,63.20
2023-01-03T03:26:11.990Z,63.10
2023-01-03T03:28:10.962Z,63.80
2023-01-03T03:29:43.491Z,63.10
2023-01-03T03:31:23.117Z,63.10
2023-01-03T03:33:05.763Z,63.90
2023-01-03T03:34:39.958Z,63.20
2023-01-03T03:36:20.585Z,63.10
2023-01-03T03:37:58.273Z,63.10
2023-01-03T03:39:51.594Z,63.10
2023-01-03T03:41:54.534Z,63.00
2023-01-03T03:43:55.405Z,62.90
2023-01-03T03:45:51.075Z,62.70
2023-01-03T03:47:34.715Z,62.60
2023-01-03T03:49:32.691Z,62.50
2023-01-03T03:51:16.501Z,62.60
2023-01-03T03:52:57.571Z,62.50
2023-01-03T03:54:37.157Z,62.50
2023-01-03T03:56:16.338Z,62.40
2023-01-03T03:58:00.423Z,62.40
2023-01-03T03:59:35.849Z,62.50
2023-01-03T04:01:17.460Z,62.50
2023-01-03T04:02:51.210Z,62.60
2023-01-03T04:04:33.836Z,62.60
2023-01-03T04:06:14.853Z,62.80
2023-01-03T04:07:48.527Z,62.70
2023-01-03T04:09:21.008Z,62.70
2023-01-03T04:11:05.290Z,62.80
2023-01-03T04:12:38.791Z,63.00
2023-01-03T04:14:11.876Z,63.00
2023-01-03T04:15:45.156Z,63.10
2023-01-03T04:17:18.520Z,63.10
2023-01-03T04:18:51.745Z,63.20
2023-01-03T04:20:27.070Z,63.30
2023-01-03T04:22:00.172Z,63.20
2023-01-03T04:23:32.337Z,63.20
2023-01-03T04:25:06.470Z,63.20
2023-01-03T04:26:38.888Z,63.30
2023-01-03T04:28:12.147Z,63.20
2023-01-03T04:29:45.334Z,63.20
2023-01-03T04:31:17.551Z,63.10
2023-01-03T04:32:50.690Z,63.20
2023-01-03T04:34:23.978Z,63.30
2023-01-03T04:35:57.670Z,63.30
2023-01-03T04:37:31.484Z,63.30
2023-01-03T04:39:04.925Z,63.20
2023-01-03T04:40:39.624Z,63.30
2023-01-03T04:42:27.236Z,63.50
2023-01-03T04:44:02.238Z,63.50
2023-01-03T04:45:35.850Z,63.50
2023-01-03T04:47:09.002Z,63.50
2023-01-03T04:48:41.628Z,63.50
2023-01-03T04:50:14.679Z,63.60
2023-01-03T04:51:49.143Z,63.60
2023-01-03T04:53:22.907Z,63.80
2023-01-03T04:54:56.246Z,64.00
2023-01-03T04:56:30.857Z,63.70
2023-01-03T04:58:03.954Z,64.10
2023-01-03T04:59:38.047Z,64.10
2023-01-03T05:01:13.337Z,64.30
2023-01-03T05:02:46.576Z,64.40
2023-01-03T05:04:20.545Z,64.20
2023-01-03T05:05:52.772Z,64.30
2023-01-03T05:07:28.625Z,64.30
2023-01-03T05:09:01.731Z,64.30
2023-01-03T05:10:34.648Z,64.30
2023-01-03T05:12:08.195Z,64.30
2023-01-03T05:13:41.545Z,64.40
2023-01-03T05:15:14.635Z,64.20
2023-01-03T05:16:47.901Z,64.30
2023-01-03T05:18:21.151Z,64.20
2023-01-03T05:20:11.692Z,64.10
2023-01-03T05:22:03.226Z,64.10
2023-01-03T05:23:55.532Z,64.00
2023-01-03T05:25:46.411Z,63.80
2023-01-03T05:27:19.797Z,63.90
2023-01-03T05:28:55.807Z,63.60
2023-01-03T05:30:29.566Z,63.30
2023-01-03T05:32:02.882Z,63.00
2023-01-03T05:33:38.841Z,62.90
2023-01-03T05:35:12.003Z,62.90
2023-01-03T05:36:45.301Z,62.80
2023-01-03T05:38:19.060Z,62.80
2023-01-03T05:39:53.501Z,62.90
2023-01-03T05:41:44.178Z,62.60
2023-01-03T05:43:18.267Z,62.80
2023-01-03T05:44:51.550Z,62.80
2023-01-03T05:46:24.716Z,62.70
2023-01-03T05:47:59.168Z,62.80
2023-01-03T05:49:33.435Z,62.80
2023-01-03T05:51:06.869Z,62.50
2023-01-03T05:52:39.994Z,62.30
2023-01-03T05:54:16.249Z,62.10
2023-01-03T05:55:50.752Z,62.20
2023-01-03T05:57:23.897Z,62.00
2023-01-03T05:58:56.956Z,62.00
2023-01-03T06:00:29.513Z,63.00
2023-01-03T06:02:02.961Z,62.90
2023-01-03T06:03:36.106Z,62.80
2023-01-03T06:05:10.414Z,62.80
2023-01-03T06:06:43.562Z,62.80
2023-01-03T06:08:16.703Z,62.70
2023-01-03T06:09:49.876Z,62.50
2023-01-03T06:11:24.294Z,62.50
2023-01-03T06:12:57.625Z,62.40
2023-01-03T06:14:30.689Z,62.50
2023-01-03T06:16:34.336Z,62.40
2023-01-03T06:18:07.638Z,62.40
2023-01-03T06:19:41.666Z,62.30
2023-01-03T06:21:13.846Z,62.10
2023-01-03T06:22:47.542Z,62.10
2023-01-03T06:24:21.221Z,62.10
2023-01-03T06:25:54.300Z,62.20
2023-01-03T06:27:28.786Z,62.20
2023-01-03T06:29:01.958Z,62.30
2023-01-03T06:30:35.180Z,62.30
2023-01-03T06:32:10.045Z,62.30
2023-01-03T06:33:43.685Z,62.30
2023-01-03T06:35:16.915Z,62.30
2023-01-03T06:36:50.026Z,62.30
2023-01-03T06:38:23.239Z,62.30
2023-01-03T06:39:56.342Z,62.20
2023-01-03T06:41:29.680Z,62.30
2023-01-03T06:43:03.403Z,62.40
2023-01-03T06:44:36.555Z,62.30
2023-01-03T06:46:30.633Z,62.40
2023-01-03T06:48:26.120Z,62.60
2023-01-03T06:50:13.343Z,62.70
2023-01-03T06:52:07.937Z,62.60
2023-01-03T06:53:44.218Z,62.70
2023-01-03T06:55:18.433Z,62.90
2023-01-03T06:56:52.352Z,62.90
2023-01-03T06:58:27.110Z,63.00
2023-01-03T07:00:00.260Z,63.10
2023-01-03T07:01:33.528Z,63.90
2023-01-03T07:03:11.175Z,63.20
2023-01-03T07:04:45.679Z,63.40
2023-01-03T07:06:18.985Z,63.30
2023-01-03T07:07:52.095Z,63.40
2023-01-03T07:09:25.276Z,63.50
2023-01-03T07:10:59.613Z,63.70
2023-01-03T07:12:50.627Z,63.80
2023-01-03T07:14:25.169Z,63.90
2023-01-03T07:15:58.459Z,64.90
2023-01-03T07:17:31.585Z,64.20
2023-01-03T07:19:05.906Z,64.40
2023-01-03T07:20:43.193Z,64.70
2023-01-03T07:22:16.378Z,64.90
2023-01-03T07:23:48.547Z,64.80
2023-01-03T07:25:21.884Z,64.80
2023-01-03T07:26:55.207Z,64.90
2023-01-03T07:28:28.486Z,64.90
2023-01-03T07:30:03.009Z,65.00
2023-01-03T07:31:40.290Z,65.00
2023-01-03T07:33:16.139Z,65.20
2023-01-03T07:34:50.263Z,65.20
2023-01-03T07:36:24.132Z,65.00
2023-01-03T07:37:56.369Z,65.30
2023-01-03T07:39:29.509Z,64.90
2023-01-03T07:41:05.703Z,64.90
2023-01-03T07:42:56.377Z,65.20
2023-01-03T07:44:29.415Z,65.00
2023-01-03T07:46:10.689Z,65.00
2023-01-03T07:47:45.388Z,65.40
2023-01-03T07:49:18.462Z,65.20
2023-01-03T07:50:51.634Z,65.30
2023-01-03T07:52:24.704Z,65.50
2023-01-03T07:53:57.876Z,65.40
2023-01-03T07:55:31.020Z,65.50
2023-01-03T07:57:04.315Z,65.50
2023-01-03T07:58:38.376Z,65.60
2023-01-03T08:00:13.373Z,65.70
2023-01-03T08:01:59.764Z,65.70
2023-01-03T08:03:33.288Z,65.70
2023-01-03T08:05:07.512Z,65.70
2023-01-03T08:06:40.688Z,66.00
2023-01-03T08:08:14.365Z,65.90
2023-01-03T08:10:04.980Z,66.00
2023-01-03T08:11:55.942Z,66.10
2023-01-03T08:13:29.058Z,66.10
2023-01-03T08:15:02.117Z,66.20
2023-01-03T08:16:35.537Z,66.00
2023-01-03T08:18:10.098Z,66.00
2023-01-03T08:19:45.684Z,66.20
2023-01-03T08:21:19.744Z,66.20
2023-01-03T08:22:52.892Z,66.20
2023-01-03T08:24:26.017Z,66.20
2023-01-03T08:26:03.793Z,66.20
2023-01-03T08:27:36.892Z,66.40
2023-01-03T08:29:10.092Z,66.20
2023-01-03T08:30:48.496Z,66.30
2023-01-03T08:32:22.599Z,66.50
2023-01-03T08:34:06.364Z,66.60
2023-01-03T08:35:49.612Z,66.70
2023-01-03T08:37:22.692Z,66.80
2023-01-03T08:39:01.135Z,67.00
2023-01-03T08:40:42.147Z,66.80
2023-01-03T08:42:20.635Z,66.70
2023-01-03T08:43:55.467Z,66.80
2023-01-03T08:45:29.195Z,66.80
2023-01-03T08:47:08.564Z,66.80
2023-01-03T08:48:42.835Z,66.90
2023-01-03T08:50:17.347Z,67.10
2023-01-03T08:51:50.452Z,67.00
2023-01-03T08:53:24.349Z,67.00
2023-01-03T08:54:57.615Z,67.20
2023-01-03T08:56:30.733Z,67.30
2023-01-03T08:58:03.814Z,67.30
2023-01-03T08:59:37.010Z,67.30
2023-01-03T09:01:11.322Z,67.40
2023-01-03T09:02:44.582Z,67.50
2023-01-03T09:04:18.349Z,67.30
2023-01-03T09:05:52.903Z,67.20
2023-01-03T09:07:26.030Z,67.10
2023-01-03T09:08:59.303Z,67.00
2023-01-03T09:10:32.884Z,67.00
2023-01-03T09:12:06.704Z,67.00
2023-01-03T09:13:40.820Z,67.00
2023-01-03T09:15:13.929Z,67.00
2023-01-03T09:16:49.202Z,67.00
2023-01-03T09:18:22.759Z,67.00
2023-01-03T09:19:55.795Z,67.00
2023-01-03T09:21:30.763Z,67.40
2023-01-03T09:23:03.709Z,67.60
2023-01-03T09:24:36.905Z,67.80
2023-01-03T09:26:10.386Z,67.60
2023-01-03T09:27:47.732Z,67.60
2023-01-03T09:29:20.829Z,67.70
2023-01-03T09:30:54.703Z,67.60
2023-01-03T09:32:28.053Z,67.80
2023-01-03T09:34:02.638Z,67.70
2023-01-03T09:35:35.712Z,68.00
2023-01-03T09:37:10.173Z,68.10
2023-01-03T09:38:43.272Z,68.30
2023-01-03T09:40:17.253Z,68.40
2023-01-03T09:42:11.112Z,68.50
2023-01-03T09:43:49.055Z,68.70
2023-01-03T09:45:28.758Z,69.80
2023-01-03T09:47:03.099Z,69.20
2023-01-03T09:48:40.704Z,69.20
2023-01-03T09:52:45.633Z,69.80
2023-01-03T09:54:43.308Z,70.20
2023-01-03T09:56:34.242Z,70.70
2023-01-03T09:58:32.747Z,71.10
2023-01-03T10:00:33.011Z,70.70
2023-01-03T10:03:06.583Z,71.10
2023-01-03T10:05:12.200Z,71.10
2023-01-03T10:06:57.407Z,70.80
2023-01-03T10:08:48.018Z,70.40
2023-01-03T10:10:33.247Z,70.40
2023-01-03T10:12:18.984Z,70.20
2023-01-03T10:14:13.383Z,69.90
2023-01-03T10:15:58.626Z,69.70
2023-01-03T10:17:44.287Z,69.50
2023-01-03T10:19:55.063Z,69.50
2023-01-03T10:21:42.141Z,69.60
2023-01-03T10:23:16.227Z,69.80
2023-01-03T10:24:59.781Z,69.70
2023-01-03T10:26:34.806Z,69.70
2023-01-03T10:28:17.072Z,69.30
2023-01-03T10:29:54.795Z,69.00
2023-01-03T10:31:48.011Z,68.70
2023-01-03T10:33:33.940Z,68.70
2023-01-03T10:35:21.624Z,68.70
2023-01-03T10:36:56.389Z,68.60
2023-01-03T10:38:30.827Z,68.20
2023-01-03T10:40:07.212Z,68.30
2023-01-03T10:41:46.019Z,68.30
2023-01-03T10:43:29.340Z,68.10
2023-01-03T10:45:05.914Z,67.80
2023-01-03T10:46:53.490Z,67.60
2023-01-03T10:48:59.963Z,67.50
2023-01-03T10:50:31.001Z,67.50
2023-01-03T10:52:11.205Z,67.20
2023-01-03T10:53:44.793Z,67.10
2023-01-03T10:55:20.964Z,66.90
2023-01-03T10:56:54.273Z,66.80
2023-01-03T10:58:36.171Z,66.70
2023-01-03T11:00:26.402Z,66.70
2023-01-03T11:02:03.354Z,66.70
2023-01-03T11:03:39.881Z,66.80
2023-01-03T11:05:20.360Z,66.70
2023-01-03T11:07:03.827Z,66.70
2023-01-03T11:08:45.354Z,66.70
2023-01-03T11:10:20.537Z,66.70
2023-01-03T11:12:03.263Z,66.60
2023-01-03T11:13:40.776Z,66.50
2023-01-03T11:15:19.544Z,66.50
2023-01-03T11:17:00.148Z,66.40
2023-01-03T11:18:33.889Z,66.40
2023-01-03T11:20:20.040Z,66.30
2023-01-03T11:22:02.202Z,66.30
2023-01-03T11:23:59.108Z,66.20
2023-01-03T11:25:49.788Z,66.10
2023-01-03T11:27:45.258Z,65.90
2023-01-03T11:30:02.226Z,65.90
2023-01-03T11:31:51.213Z,65.70
2023-01-03T11:33:51.844Z,65.90
2023-01-03T11:35:46.664Z,66.00
2023-01-03T11:37:32.368Z,66.00
2023-01-03T11:39:27.197Z,66.10
2023-01-03T11:41:19.442Z,66.20
2023-01-03T11:43:06.501Z,66.30
2023-01-03T11:45:12.235Z,66.30
2023-01-03T11:47:07.355Z,66.30
2023-01-03T11:49:06.061Z,66.10
2023-01-03T11:50:54.159Z,65.90
2023-01-03T11:52:39.713Z,65.90
2023-01-03T11:54:44.523Z,65.80
2023-01-03T11:56:29.902Z,65.30
2023-01-03T11:58:23.009Z,65.60
2023-01-03T12:00:12.974Z,65.50
2023-01-03T12:02:25.952Z,65.40
2023-01-03T12:04:24.528Z,65.20
2023-01-03T12:06:11.924Z,64.90
2023-01-03T12:08:05.643Z,64.80
2023-01-03T12:09:51.104Z,64.70
2023-01-03T12:11:47.651Z,64.70
2023-01-03T12:13:33.010Z,64.80
2023-01-03T12:15:19.298Z,64.80
2023-01-03T12:16:57.966Z,64.70
2023-01-03T12:18:45.297Z,64.70
2023-01-03T12:20:24.433Z,64.40
2023-01-03T12:22:09.248Z,63.90
2023-01-03T12:23:46.600Z,64.10
2023-01-03T12:25:28.143Z,64.00
2023-01-03T12:27:19.546Z,63.90
2023-01-03T12:29:04.860Z,63.70
2023-01-03T12:30:45.564Z,63.50
2023-01-03T12:32:26.260Z,63.40
2023-01-03T12:34:06.186Z,63.40
2023-01-03T12:35:48.707Z,63.30
2023-01-03T12:37:27.564Z,63.40
2023-01-03T12:39:24.916Z,63.30
2023-01-03T12:41:14.671Z,63.30
2023-01-03T12:43:03.781Z,63.40
2023-01-03T12:44:41.854Z,63.60
2023-01-03T12:46:20.281Z,63.60
2023-01-03T12:47:59.498Z,63.40
2023-01-03T12:49:42.164Z,63.70
2023-01-03T12:51:21.299Z,63.40
2023-01-03T12:53:04.684Z,63.20
2023-01-03T12:54:45.440Z,63.10
2023-01-03T12:56:48.340Z,63.10
2023-01-03T12:58:51.329Z,63.00
2023-01-03T13:00:43.335Z,63.10
2023-01-03T13:02:30.583Z,63.00
2023-01-03T13:04:22.682Z,62.80
2023-01-03T13:06:02.899Z,62.70
2023-01-03T13:07:37.708Z,62.80
2023-01-03T13:09:20.620Z,62.70
2023-01-03T13:11:00.107Z,62.60
2023-01-03T13:12:35.927Z,62.60
2023-01-03T13:14:21.831Z,62.70
2023-01-03T13:15:55.702Z,62.30
2023-01-03T13:17:44.545Z,62.30
2023-01-03T13:19:57.867Z,62.10
2023-01-03T13:22:03.006Z,62.20
2023-01-03T13:23:58.928Z,62.10
2023-01-03T13:25:39.950Z,62.30
2023-01-03T13:27:36.991Z,61.90
2023-01-03T13:29:45.366Z,61.50
2023-01-03T13:32:04.573Z,61.50
2023-01-03T13:33:55.090Z,61.60
2023-01-03T13:35:36.535Z,61.50
2023-01-03T13:37:21.050Z,61.60
2023-01-03T13:38:54.687Z,61.20
2023-01-03T13:41:15.538Z,61.50
2023-01-03T13:42:29.876Z,61.40
2023-01-03T13:44:16.623Z,61.00
2023-01-03T13:45:59.377Z,60.90
2023-01-03T13:47:41.729Z,60.90
2023-01-03T13:49:21.356Z,60.80
2023-01-03T13:51:27.614Z,60.90
2023-01-03T13:53:05.191Z,60.50
2023-01-03T13:54:58.957Z,61.40
2023-01-03T13:57:02.844Z,59.90
2023-01-03T13:58:47.372Z,59.90
2023-01-03T14:00:24.278Z,59.70
2023-01-03T14:02:48.729Z,59.70
2023-01-03T14:04:56.567Z,59.50
2023-01-03T14:07:10.740Z,59.50
2023-01-03T14:09:22.150Z,59.40
2023-01-03T14:11:17.502Z,59.40
2023-01-03T14:13:31.547Z,59.50
2023-01-03T14:15:25.266Z,59.30
2023-01-03T14:17:02.912Z,59.30
2023-01-03T14:18:40.105Z,59.30
2023-01-03T14:20:27.969Z,59.10
2023-01-03T14:22:27.249Z,59.00
2023-01-03T14:24:01.865Z,59.20
2023-01-03T14:25:38.204Z,59.10
2023-01-03T14:27:17.561Z,59.00
2023-01-03T14:28:54.788Z,59.60
2023-01-03T14:30:33.686Z,59.00
2023-01-03T14:32:22.865Z,59.60
2023-01-03T14:34:01.386Z,59.00
2023-01-03T14:35:40.775Z,59.00
2023-01-03T14:37:17.682Z,59.00
2023-01-03T14:38:54.367Z,59.30
2023-01-03T14:40:27.557Z,59.70
2023-01-03T14:42:04.218Z,59.80
2023-01-03T14:43:42.800Z,59.90
2023-01-03T14:45:19.541Z,59.90
2023-01-03T14:46:57.927Z,60.10
2023-01-03T14:48:31.847Z,60.30
2023-01-03T14:50:12.433Z,60.30
2023-01-03T14:51:45.502Z,60.40
2023-01-03T14:53:19.011Z,60.10
2023-01-03T14:55:03.442Z,59.80
2023-01-03T14:56:38.525Z,59.50
2023-01-03T14:58:33.790Z,59.30
2023-01-03T15:00:13.287Z,59.00
2023-01-03T15:01:47.626Z,59.20
2023-01-03T15:03:21.970Z,59.30
2023-01-03T15:04:57.940Z,59.30
2023-01-03T15:06:34.021Z,59.50
2023-01-03T15:08:23.519Z,59.60
2023-01-03T15:10:16.825Z,59.60
2023-01-03T15:11:59.188Z,59.80
2023-01-03T15:13:36.979Z,59.80
2023-01-03T15:15:28.149Z,59.80
2023-01-03T15:17:06.245Z,59.80
2023-01-03T15:18:42.535Z,59.80
2023-01-03T15:20:20.270Z,59.70
2023-01-03T15:22:09.375Z,59.80
2023-01-03T15:23:46.934Z,59.80
2023-01-03T15:25:32.392Z,59.70
2023-01-03T15:27:34.405Z,59.60
2023-01-03T15:29:14.988Z,59.70
2023-01-03T15:30:50.014Z,59.60
2023-01-03T15:32:23.206Z,59.60
2023-01-03T15:34:02.646Z,59.60
2023-01-03T15:35:40.550Z,59.60
2023-01-03T15:37:23.836Z,59.70
2023-01-03T15:38:57.670Z,59.70
2023-01-03T15:40:32.718Z,59.60
2023-01-03T15:42:44.754Z,59.70
2023-01-03T15:44:23.766Z,59.70
2023-01-03T15:46:04.485Z,59.70
2023-01-03T15:47:37.742Z,59.50
2023-01-03T15:49:16.930Z,59.50
2023-01-03T15:50:53.402Z,59.50
2023-01-03T15:52:28.643Z,59.60
2023-01-03T15:54:02.873Z,59.60
2023-01-03T15:55:36.915Z,60.10
2023-01-03T15:57:16.271Z,59.80
2023-01-03T15:58:52.835Z,59.80
2023-01-03T16:00:27.122Z,59.80
2023-01-03T16:02:01.295Z,59.80
2023-01-03T16:03:36.875Z,60.00
2023-01-03T16:05:22.207Z,59.80
2023-01-03T16:07:01.107Z,59.90
2023-01-03T16:08:38.546Z,60.00
2023-01-03T16:10:12.972Z,60.10
2023-01-03T16:11:47.195Z,60.00
2023-01-03T16:13:21.045Z,60.00
2023-01-03T16:14:55.745Z,60.00
2023-01-03T16:16:36.003Z,59.90
2023-01-03T16:18:13.542Z,59.90
2023-01-03T16:19:46.975Z,59.80
2023-01-03T16:21:20.803Z,59.90
2023-01-03T16:23:00.873Z,59.80
2023-01-03T16:24:36.160Z,59.70
2023-01-03T16:26:09.888Z,59.70
2023-01-03T16:27:43.420Z,59.70
2023-01-03T16:29:17.228Z,60.30
2023-01-03T16:31:04.486Z,59.60
2023-01-03T16:32:37.849Z,59.60
2023-01-03T16:34:25.363Z,59.40
2023-01-03T16:36:02.507Z,59.50
2023-01-03T16:37:35.869Z,59.40
2023-01-03T16:39:17.875Z,59.40
2023-01-03T16:40:54.391Z,59.50
2023-01-03T16:42:28.324Z,59.70
2023-01-03T16:44:03.450Z,59.70
2023-01-03T16:45:43.530Z,59.70
2023-01-03T16:47:22.477Z,60.00
2023-01-03T16:49:00.865Z,59.90
2023-01-03T16:50:40.077Z,59.80
2023-01-03T16:52:18.879Z,59.90
2023-01-03T16:54:03.926Z,59.90
2023-01-03T16:55:39.948Z,59.90
2023-01-03T16:57:19.896Z,60.10
2023-01-03T16:58:53.592Z,59.90
2023-01-03T17:00:30.590Z,59.80
2023-01-03T17:02:04.036Z,59.80
2023-01-03T17:03:41.809Z,59.70
2023-01-03T17:05:16.441Z,59.70
2023-01-03T17:06:49.921Z,59.80
2023-01-03T17:08:27.307Z,59.70
2023-01-03T17:10:09.187Z,59.90
2023-01-03T17:11:42.702Z,59.90
2023-01-03T17:13:28.338Z,59.90
2023-01-03T17:15:01.452Z,60.00
2023-01-03T17:16:35.473Z,59.90
2023-01-03T17:18:18.328Z,59.80
2023-01-03T17:20:07.491Z,59.90
2023-01-03T17:21:47.937Z,59.90
2023-01-03T17:23:25.590Z,60.00
2023-01-03T17:24:58.731Z,60.00
2023-01-03T17:26:35.560Z,60.00
2023-01-03T17:28:11.872Z,60.10
2023-01-03T17:29:50.606Z,60.30
2023-01-03T17:31:26.097Z,60.40
2023-01-03T17:33:04.652Z,60.60
2023-01-03T17:34:38.909Z,60.80
2023-01-03T17:36:15.362Z,61.80
2023-01-03T17:38:24.175Z,62.00
2023-01-03T17:39:43.392Z,62.10
2023-01-03T17:41:20.556Z,62.20
2023-01-03T17:42:56.723Z,62.20
2023-01-03T17:44:31.754Z,62.20
2023-01-03T17:46:36.930Z,61.90
2023-01-03T17:48:29.964Z,61.90
2023-01-03T17:50:03.352Z,61.70
2023-01-03T17:51:36.694Z,61.40
2023-01-03T17:53:12.315Z,61.70
2023-01-03T17:54:45.499Z,62.10
2023-01-03T17:56:21.475Z,61.90
2023-01-03T17:57:55.421Z,61.90
2023-01-03T17:59:29.596Z,61.80
2023-01-03T18:01:03.915Z,61.80
2023-01-03T18:02:40.556Z,61.80
2023-01-03T18:04:13.958Z,61.80
2023-01-03T18:05:47.311Z,61.70
2023-01-03T18:07:25.348Z,61.80
2023-01-03T18:08:59.346Z,61.80
2023-01-03T18:10:43.753Z,61.80
2023-01-03T18:12:22.025Z,62.00
2023-01-03T18:13:55.113Z,62.00
2023-01-03T18:15:31.222Z,61.90
2023-01-03T18:17:04.315Z,62.10
2023-01-03T18:18:38.828Z,62.10
2023-01-03T18:20:15.411Z,62.20
2023-01-03T18:21:49.175Z,62.50
2023-01-03T18:23:28.386Z,62.40
2023-01-03T18:25:01.803Z,62.70
2023-01-03T18:26:37.832Z,62.70
2023-01-03T18:28:12.838Z,62.80
2023-01-03T18:29:45.939Z,62.80
2023-01-03T18:31:20.573Z,62.70
2023-01-03T18:32:53.902Z,62.90
2023-01-03T18:34:29.367Z,62.90
2023-01-03T18:36:02.986Z,62.90
2023-01-03T18:37:38.510Z,63.00
2023-01-03T18:39:16.607Z,63.30
2023-01-03T18:40:49.696Z,63.40
2023-01-03T18:43:00.130Z,63.40
2023-01-03T18:44:33.436Z,63.60
2023-01-03T18:46:14.945Z,63.70
2023-01-03T18:47:48.262Z,63.90
2023-01-03T18:49:21.488Z,63.90
2023-01-03T18:50:59.206Z,64.00
2023-01-03T18:52:38.147Z,64.10
2023-01-03T18:54:20.492Z,64.40
2023-01-03T18:55:53.661Z,64.50
2023-01-03T18:57:27.880Z,64.50
2023-01-03T18:59:05.911Z,64.70
2023-01-03T19:00:38.998Z,64.90
2023-01-03T19:02:15.828Z,64.80
2023-01-03T19:03:51.040Z,65.10
2023-01-03T19:05:24.582Z,65.10
2023-01-03T19:06:59.304Z,65.20
2023-01-03T19:08:34.149Z,65.30
2023-01-03T19:10:22.021Z,65.70
2023-01-03T19:11:56.678Z,65.50
2023-01-03T19:13:49.789Z,65.50
2023-01-03T19:15:28.211Z,65.70
2023-01-03T19:17:01.468Z,65.80
2023-01-03T19:18:34.578Z,65.60
2023-01-03T19:20:09.312Z,65.60
2023-01-03T19:21:47.217Z,66.00
2023-01-03T19:23:26.837Z,66.20
2023-01-03T19:25:03.831Z,66.30
2023-01-03T19:26:43.260Z,66.40
2023-01-03T19:28:22.968Z,66.80
2023-01-03T19:29:56.124Z,66.90
2023-01-03T19:31:38.797Z,66.80
2023-01-03T19:33:15.522Z,66.90
2023-01-03T19:34:49.050Z,67.00
2023-01-03T19:36:23.205Z,66.80
2023-01-03T19:37:56.550Z,67.00
2023-01-03T19:39:37.085Z,67.70
2023-01-03T19:41:15.759Z,67.00
2023-01-03T19:42:53.454Z,67.10
2023-01-03T19:44:27.139Z,67.30
2023-01-03T19:46:00.538Z,67.30
2023-01-03T19:47:33.722Z,67.30
2023-01-03T19:49:15.186Z,67.20
2023-01-03T19:50:49.956Z,67.50
2023-01-03T19:52:24.742Z,67.50
2023-01-03T19:53:58.887Z,67.30
2023-01-03T19:55:36.291Z,67.30
2023-01-03T19:57:21.074Z,67.50
2023-01-03T19:59:03.143Z,67.30
2023-01-03T20:00:36.995Z,67.10
2023-01-03T20:02:29.274Z,67.20
2023-01-03T20:04:02.953Z,67.40
2023-01-03T20:05:37.209Z,67.20
2023-01-03T20:07:15.189Z,67.00
2023-01-03T20:08:48.560Z,67.10
2023-01-03T20:10:24.825Z,66.90
2023-01-03T20:11:59.594Z,67.00
2023-01-03T20:13:33.933Z,67.50
2023-01-03T20:15:16.326Z,66.80
2023-01-03T20:16:50.351Z,66.70
2023-01-03T20:18:27.724Z,66.60
2023-01-03T20:20:01.892Z,66.60
2023-01-03T20:21:35.052Z,66.60
2023-01-03T20:23:16.685Z,66.50
2023-01-03T20:24:49.871Z,66.50
2023-01-03T20:26:26.017Z,66.30
2023-01-03T20:28:01.984Z,66.30
2023-01-03T20:29:35.225Z,66.30
2023-01-03T20:31:12.878Z,66.00
2023-01-03T20:32:48.456Z,66.10
2023-01-03T20:34:21.664Z,65.90
2023-01-03T20:36:22.222Z,65.90
2023-01-03T20:37:55.190Z,65.90
2023-01-03T20:39:32.860Z,65.80
2023-01-03T20:41:06.334Z,65.80
2023-01-03T20:42:39.956Z,65.40
2023-01-03T20:44:14.416Z,65.60
2023-01-03T20:45:53.893Z,65.60
2023-01-03T20:47:28.905Z,65.50
2023-01-03T20:49:04.328Z,65.40
2023-01-03T20:50:37.396Z,65.40
2023-01-03T20:52:16.952Z,65.10
2023-01-03T20:53:54.327Z,65.10
2023-01-03T20:55:28.328Z,65.00
2023-01-03T20:57:01.465Z,65.00
2023-01-03T20:58:34.585Z,64.90
2023-01-03T21:00:24.158Z,64.80
2023-01-03T21:01:57.813Z,63.90
2023-01-03T21:03:31.217Z,63.70
2023-01-03T21:05:05.784Z,63.50
2023-01-03T21:06:47.772Z,63.60
2023-01-03T21:08:38.719Z,63.50
2023-01-03T21:10:23.086Z,63.50
2023-01-03T21:11:56.215Z,63.40
2023-01-03T21:13:29.409Z,63.20
2023-01-03T21:15:02.525Z,63.20
2023-01-03T21:16:41.580Z,63.10
2023-01-03T21:18:15.170Z,63.00
2023-01-03T21:19:48.624Z,63.10
2023-01-03T21:21:24.686Z,63.10
2023-01-03T21:23:00.473Z,63.20
2023-01-03T21:24:38.645Z,63.10
2023-01-03T21:26:12.573Z,63.00
2023-01-03T21:27:45.680Z,62.80